sensor_id;sensor_type;location;lat;lon;timestamp;temperature;humidity
10046;DHT22;5063;50.878;4.742;2023-01-30T00:00:26;5.70;99.90
10046;DHT22;5063;50.878;4.742;2023-01-30T00:02:52;6.00;99.90
10046;DHT22;5063;50.878;4.742;2023-01-30T00:05:17;5.70;99.90
10046;DHT22;5063;50.878;4.742;2023-01-30T00:07:43;5.70;99.90
10046;DHT22;5063;50.878;4.742;2023-01-30T00:10:11;5.70;99.90
10046;DHT22;5063;50.878;4.742;2023-01-30T00:12:37;5.90;99.90
10046;DHT22;5063;50.878;4.742;2023-01-30T00:15:03;6.00;99.90
10046;DHT22;5063;50.878;4.742;2023-01-30T00:17:28;5.80;99.90
10046;DHT22;5063;50.878;4.742;2023-01-30T00:19:54;5.90;99.90
10046;DHT22;5063;50.878;4.742;2023-01-30T00:22:20;6.00;99.90
10046;DHT22;5063;50.878;4.742;2023-01-30T00:24:45;6.20;99.90
10046;DHT22;5063;50.878;4.742;2023-01-30T00:27:11;6.30;99.90
10046;DHT22;5063;50.878;4.742;2023-01-30T00:29:37;6.10;99.90
10046;DHT22;5063;50.878;4.742;2023-01-30T00:32:03;6.10;99.90
10046;DHT22;5063;50.878;4.742;2023-01-30T00:34:29;6.10;99.90
10046;DHT22;5063;50.878;4.742;2023-01-30T00:36:55;6.10;99.90
10046;DHT22;5063;50.878;4.742;2023-01-30T00:39:21;6.20;99.90
10046;DHT22;5063;50.878;4.742;2023-01-30T00:41:49;6.30;99.90
10046;DHT22;5063;50.878;4.742;2023-01-30T00:44:33;6.00;99.90
10046;DHT22;5063;50.878;4.742;2023-01-30T00:47:18;6.10;99.90
10046;DHT22;5063;50.878;4.742;2023-01-30T00:49:44;6.10;99.90
10046;DHT22;5063;50.878;4.742;2023-01-30T00:52:10;6.20;99.90
10046;DHT22;5063;50.878;4.742;2023-01-30T00:54:35;6.40;99.90
10046;DHT22;5063;50.878;4.742;2023-01-30T00:57:01;6.40;99.90
10046;DHT22;5063;50.878;4.742;2023-01-30T00:59:27;6.30;99.90
10046;DHT22;5063;50.878;4.742;2023-01-30T01:01:53;6.30;99.90
10046;DHT22;5063;50.878;4.742;2023-01-30T01:04:19;6.40;99.90
10046;DHT22;5063;50.878;4.742;2023-01-30T01:06:44;6.30;99.90
10046;DHT22;5063;50.878;4.742;2023-01-30T01:09:10;6.40;99.90
10046;DHT22;5063;50.878;4.742;2023-01-30T01:11:36;6.70;99.90
10046;DHT22;5063;50.878;4.742;2023-01-30T01:14:02;6.50;99.90
10046;DHT22;5063;50.878;4.742;2023-01-30T01:16:30;6.50;99.90
10046;DHT22;5063;50.878;4.742;2023-01-30T01:18:56;6.70;99.90
10046;DHT22;5063;50.878;4.742;2023-01-30T01:21:23;6.50;99.90
10046;DHT22;5063;50.878;4.742;2023-01-30T01:23:53;6.60;99.90
10046;DHT22;5063;50.878;4.742;2023-01-30T01:26:19;6.50;99.90
10046;DHT22;5063;50.878;4.742;2023-01-30T01:28:45;6.50;99.90
10046;DHT22;5063;50.878;4.742;2023-01-30T01:31:13;6.30;99.90
10046;DHT22;5063;50.878;4.742;2023-01-30T01:33:39;6.70;99.90
10046;DHT22;5063;50.878;4.742;2023-01-30T01:36:06;6.80;99.90
10046;DHT22;5063;50.878;4.742;2023-01-30T01:38:32;6.70;99.90
10046;DHT22;5063;50.878;4.742;2023-01-30T01:40:58;6.80;99.90
10046;DHT22;5063;50.878;4.742;2023-01-30T01:43:36;6.80;99.90
10046;DHT22;5063;50.878;4.742;2023-01-30T01:46:19;6.70;99.90
10046;DHT22;5063;50.878;4.742;2023-01-30T01:48:49;6.80;99.90
10046;DHT22;5063;50.878;4.742;2023-01-30T01:51:37;6.90;99.90
10046;DHT22;5063;50.878;4.742;2023-01-30T01:54:18;6.90;99.90
10046;DHT22;5063;50.878;4.742;2023-01-30T01:56:47;7.00;99.90
10046;DHT22;5063;50.878;4.742;2023-01-30T01:59:26;7.00;99.90
10046;DHT22;5063;50.878;4.742;2023-01-30T02:01:56;7.00;99.90
10046;DHT22;5063;50.878;4.742;2023-01-30T02:04:24;7.00;99.90
10046;DHT22;5063;50.878;4.742;2023-01-30T02:07:10;7.00;99.90
10046;DHT22;5063;50.878;4.742;2023-01-30T02:09:36;7.10;99.90
10046;DHT22;5063;50.878;4.742;2023-01-30T02:12:03;7.00;99.90
10046;DHT22;5063;50.878;4.742;2023-01-30T02:14:32;7.20;99.90
10046;DHT22;5063;50.878;4.742;2023-01-30T02:16:58;7.00;99.90
10046;DHT22;5063;50.878;4.742;2023-01-30T02:19:33;7.00;99.90
10046;DHT22;5063;50.878;4.742;2023-01-30T02:22:08;7.00;99.90
10046;DHT22;5063;50.878;4.742;2023-01-30T02:30:14;7.00;99.90
10046;DHT22;5063;50.878;4.742;2023-01-30T02:33:15;7.00;99.90
10046;DHT22;5063;50.878;4.742;2023-01-30T02:35:47;7.00;99.90
10046;DHT22;5063;50.878;4.742;2023-01-30T02:38:38;7.00;99.90
10046;DHT22;5063;50.878;4.742;2023-01-30T02:41:25;7.10;99.90
10046;DHT22;5063;50.878;4.742;2023-01-30T02:46:42;7.10;99.90
10046;DHT22;5063;50.878;4.742;2023-01-30T02:49:25;7.20;99.90
10046;DHT22;5063;50.878;4.742;2023-01-30T02:51:55;7.20;99.90
10046;DHT22;5063;50.878;4.742;2023-01-30T02:54:22;7.20;99.90
10046;DHT22;5063;50.878;4.742;2023-01-30T02:56:53;7.10;99.90
10046;DHT22;5063;50.878;4.742;2023-01-30T02:59:30;7.20;99.90
10046;DHT22;5063;50.878;4.742;2023-01-30T03:02:10;7.30;99.90
10046;DHT22;5063;50.878;4.742;2023-01-30T03:15:32;7.20;99.90
10046;DHT22;5063;50.878;4.742;2023-01-30T03:18:00;7.20;99.90
10046;DHT22;5063;50.878;4.742;2023-01-30T03:20:26;7.30;99.90
10046;DHT22;5063;50.878;4.742;2023-01-30T03:22:53;7.10;99.90
10046;DHT22;5063;50.878;4.742;2023-01-30T03:25:21;7.60;99.90
10046;DHT22;5063;50.878;4.742;2023-01-30T03:27:50;7.30;99.90
10046;DHT22;5063;50.878;4.742;2023-01-30T03:30:17;7.30;99.90
10046;DHT22;5063;50.878;4.742;2023-01-30T03:32:43;7.40;99.90
10046;DHT22;5063;50.878;4.742;2023-01-30T03:35:08;7.40;99.90
10046;DHT22;5063;50.878;4.742;2023-01-30T03:37:34;7.40;99.90
10046;DHT22;5063;50.878;4.742;2023-01-30T03:40:00;7.40;99.90
10046;DHT22;5063;50.878;4.742;2023-01-30T03:42:26;7.50;99.90
10046;DHT22;5063;50.878;4.742;2023-01-30T03:44:52;7.50;99.90
10046;DHT22;5063;50.878;4.742;2023-01-30T03:47:18;7.50;99.90
10046;DHT22;5063;50.878;4.742;2023-01-30T03:49:43;7.60;99.90
10046;DHT22;5063;50.878;4.742;2023-01-30T03:52:09;7.80;99.90
10046;DHT22;5063;50.878;4.742;2023-01-30T03:54:35;7.70;99.90
10046;DHT22;5063;50.878;4.742;2023-01-30T03:57:00;7.70;99.90
10046;DHT22;5063;50.878;4.742;2023-01-30T03:59:27;7.70;99.90
10046;DHT22;5063;50.878;4.742;2023-01-30T04:01:53;7.70;99.90
10046;DHT22;5063;50.878;4.742;2023-01-30T04:04:19;7.70;99.90
10046;DHT22;5063;50.878;4.742;2023-01-30T04:06:44;7.80;99.90
10046;DHT22;5063;50.878;4.742;2023-01-30T04:09:10;7.80;99.90
10046;DHT22;5063;50.878;4.742;2023-01-30T04:11:36;7.80;99.90
10046;DHT22;5063;50.878;4.742;2023-01-30T04:14:01;7.80;99.90
10046;DHT22;5063;50.878;4.742;2023-01-30T04:16:27;7.80;99.90
10046;DHT22;5063;50.878;4.742;2023-01-30T04:18:53;7.80;99.90
10046;DHT22;5063;50.878;4.742;2023-01-30T04:21:19;7.70;99.90
10046;DHT22;5063;50.878;4.742;2023-01-30T04:23:45;7.60;99.90
10046;DHT22;5063;50.878;4.742;2023-01-30T04:26:11;7.60;99.90
10046;DHT22;5063;50.878;4.742;2023-01-30T04:28:38;7.50;99.90
10046;DHT22;5063;50.878;4.742;2023-01-30T04:31:04;7.50;99.90
10046;DHT22;5063;50.878;4.742;2023-01-30T04:33:31;7.70;99.90
10046;DHT22;5063;50.878;4.742;2023-01-30T04:36:00;7.50;99.90
10046;DHT22;5063;50.878;4.742;2023-01-30T04:38:27;7.40;99.90
10046;DHT22;5063;50.878;4.742;2023-01-30T04:40:54;7.50;99.90
10046;DHT22;5063;50.878;4.742;2023-01-30T04:43:21;7.70;99.90
10046;DHT22;5063;50.878;4.742;2023-01-30T04:45:48;7.50;99.90
10046;DHT22;5063;50.878;4.742;2023-01-30T04:48:15;7.40;99.90
10046;DHT22;5063;50.878;4.742;2023-01-30T04:50:42;7.40;99.90
10046;DHT22;5063;50.878;4.742;2023-01-30T04:53:09;7.40;99.90
10046;DHT22;5063;50.878;4.742;2023-01-30T04:55:35;7.40;99.90
10046;DHT22;5063;50.878;4.742;2023-01-30T04:58:01;7.50;99.90
10046;DHT22;5063;50.878;4.742;2023-01-30T05:00:27;7.50;99.90
10046;DHT22;5063;50.878;4.742;2023-01-30T05:02:53;7.40;99.90
10046;DHT22;5063;50.878;4.742;2023-01-30T05:05:21;7.60;99.90
10046;DHT22;5063;50.878;4.742;2023-01-30T05:07:47;7.40;99.90
10046;DHT22;5063;50.878;4.742;2023-01-30T05:10:14;7.50;99.90
10046;DHT22;5063;50.878;4.742;2023-01-30T05:12:40;7.70;99.90
10046;DHT22;5063;50.878;4.742;2023-01-30T05:15:06;7.40;99.90
10046;DHT22;5063;50.878;4.742;2023-01-30T05:17:33;7.40;99.90
10046;DHT22;5063;50.878;4.742;2023-01-30T05:19:58;7.40;99.90
10046;DHT22;5063;50.878;4.742;2023-01-30T05:22:24;7.40;99.90
10046;DHT22;5063;50.878;4.742;2023-01-30T05:24:50;7.40;99.90
10046;DHT22;5063;50.878;4.742;2023-01-30T05:27:16;7.50;99.90
10046;DHT22;5063;50.878;4.742;2023-01-30T05:29:42;7.60;99.90
10046;DHT22;5063;50.878;4.742;2023-01-30T05:32:13;7.50;99.90
10046;DHT22;5063;50.878;4.742;2023-01-30T05:34:39;7.60;99.90
10046;DHT22;5063;50.878;4.742;2023-01-30T05:37:05;7.60;99.90
10046;DHT22;5063;50.878;4.742;2023-01-30T05:39:30;7.80;99.90
10046;DHT22;5063;50.878;4.742;2023-01-30T05:41:56;7.60;99.90
10046;DHT22;5063;50.878;4.742;2023-01-30T05:44:22;7.70;99.90
10046;DHT22;5063;50.878;4.742;2023-01-30T05:46:47;7.50;99.90
10046;DHT22;5063;50.878;4.742;2023-01-30T05:49:13;7.70;99.90
10046;DHT22;5063;50.878;4.742;2023-01-30T05:51:39;7.70;99.90
10046;DHT22;5063;50.878;4.742;2023-01-30T05:54:05;7.70;99.90
10046;DHT22;5063;50.878;4.742;2023-01-30T05:56:31;7.60;99.90
10046;DHT22;5063;50.878;4.742;2023-01-30T05:58:58;7.80;99.90
10046;DHT22;5063;50.878;4.742;2023-01-30T06:01:25;7.80;99.90
10046;DHT22;5063;50.878;4.742;2023-01-30T06:03:51;7.80;99.90
10046;DHT22;5063;50.878;4.742;2023-01-30T06:06:17;7.80;99.90
10046;DHT22;5063;50.878;4.742;2023-01-30T06:08:43;7.90;99.90
10046;DHT22;5063;50.878;4.742;2023-01-30T06:11:12;7.90;99.90
10046;DHT22;5063;50.878;4.742;2023-01-30T06:13:38;7.90;99.90
10046;DHT22;5063;50.878;4.742;2023-01-30T06:16:09;7.90;99.90
10046;DHT22;5063;50.878;4.742;2023-01-30T06:18:36;7.90;99.90
10046;DHT22;5063;50.878;4.742;2023-01-30T06:21:02;8.00;99.90
10046;DHT22;5063;50.878;4.742;2023-01-30T06:23:28;7.90;99.90
10046;DHT22;5063;50.878;4.742;2023-01-30T06:25:54;8.00;99.90
10046;DHT22;5063;50.878;4.742;2023-01-30T06:28:21;8.00;99.90
10046;DHT22;5063;50.878;4.742;2023-01-30T06:30:47;8.00;99.90
10046;DHT22;5063;50.878;4.742;2023-01-30T06:33:14;8.00;99.90
10046;DHT22;5063;50.878;4.742;2023-01-30T06:35:41;8.10;99.90
10046;DHT22;5063;50.878;4.742;2023-01-30T06:38:07;8.00;99.90
10046;DHT22;5063;50.878;4.742;2023-01-30T06:40:39;8.00;99.90
10046;DHT22;5063;50.878;4.742;2023-01-30T06:43:05;8.10;99.90
10046;DHT22;5063;50.878;4.742;2023-01-30T06:45:31;8.20;99.90
10046;DHT22;5063;50.878;4.742;2023-01-30T06:47:57;8.10;99.90
10046;DHT22;5063;50.878;4.742;2023-01-30T06:50:26;8.20;99.90
10046;DHT22;5063;50.878;4.742;2023-01-30T06:52:52;8.20;99.90
10046;DHT22;5063;50.878;4.742;2023-01-30T06:55:20;8.20;99.90
10046;DHT22;5063;50.878;4.742;2023-01-30T06:57:47;8.10;99.90
10046;DHT22;5063;50.878;4.742;2023-01-30T07:00:16;8.10;99.90
10046;DHT22;5063;50.878;4.742;2023-01-30T07:02:42;8.20;99.90
10046;DHT22;5063;50.878;4.742;2023-01-30T07:05:09;8.10;99.90
10046;DHT22;5063;50.878;4.742;2023-01-30T07:07:35;8.10;99.90
10046;DHT22;5063;50.878;4.742;2023-01-30T07:10:02;8.10;99.90
10046;DHT22;5063;50.878;4.742;2023-01-30T07:12:28;8.10;99.90
10046;DHT22;5063;50.878;4.742;2023-01-30T07:14:54;8.10;99.90
10046;DHT22;5063;50.878;4.742;2023-01-30T07:17:20;8.20;99.90
10046;DHT22;5063;50.878;4.742;2023-01-30T07:19:46;8.40;99.90
10046;DHT22;5063;50.878;4.742;2023-01-30T07:22:13;8.30;99.90
10046;DHT22;5063;50.878;4.742;2023-01-30T07:24:39;8.10;99.90
10046;DHT22;5063;50.878;4.742;2023-01-30T07:27:10;8.00;99.90
10046;DHT22;5063;50.878;4.742;2023-01-30T07:29:37;8.20;99.90
10046;DHT22;5063;50.878;4.742;2023-01-30T07:32:04;8.00;99.90
10046;DHT22;5063;50.878;4.742;2023-01-30T07:34:30;8.10;99.90
10046;DHT22;5063;50.878;4.742;2023-01-30T07:36:56;8.10;99.90
10046;DHT22;5063;50.878;4.742;2023-01-30T07:39:22;8.10;99.90
10046;DHT22;5063;50.878;4.742;2023-01-30T07:41:47;8.20;99.90
10046;DHT22;5063;50.878;4.742;2023-01-30T07:44:13;8.20;99.90
10046;DHT22;5063;50.878;4.742;2023-01-30T07:46:39;8.20;99.90
10046;DHT22;5063;50.878;4.742;2023-01-30T07:49:06;8.20;99.90
10046;DHT22;5063;50.878;4.742;2023-01-30T07:51:32;8.30;99.90
10046;DHT22;5063;50.878;4.742;2023-01-30T07:53:58;8.30;99.90
10046;DHT22;5063;50.878;4.742;2023-01-30T07:56:25;8.20;99.90
10046;DHT22;5063;50.878;4.742;2023-01-30T07:58:53;8.20;99.90
10046;DHT22;5063;50.878;4.742;2023-01-30T08:01:19;8.30;99.90
10046;DHT22;5063;50.878;4.742;2023-01-30T08:03:45;8.30;99.90
10046;DHT22;5063;50.878;4.742;2023-01-30T08:06:11;8.30;99.90
10046;DHT22;5063;50.878;4.742;2023-01-30T08:08:38;8.40;99.90
10046;DHT22;5063;50.878;4.742;2023-01-30T08:11:04;8.40;99.90
10046;DHT22;5063;50.878;4.742;2023-01-30T08:13:30;8.40;99.90
10046;DHT22;5063;50.878;4.742;2023-01-30T08:16:04;8.40;99.90
10046;DHT22;5063;50.878;4.742;2023-01-30T08:18:31;8.40;99.90
10046;DHT22;5063;50.878;4.742;2023-01-30T08:21:02;8.30;99.90
10046;DHT22;5063;50.878;4.742;2023-01-30T08:23:29;8.40;99.90
10046;DHT22;5063;50.878;4.742;2023-01-30T08:25:56;8.60;99.90
10046;DHT22;5063;50.878;4.742;2023-01-30T08:28:22;8.70;99.90
10046;DHT22;5063;50.878;4.742;2023-01-30T08:30:48;8.90;99.90
10046;DHT22;5063;50.878;4.742;2023-01-30T08:33:15;9.00;99.90
10046;DHT22;5063;50.878;4.742;2023-01-30T08:35:40;9.30;99.90
10046;DHT22;5063;50.878;4.742;2023-01-30T08:38:06;9.50;99.90
10046;DHT22;5063;50.878;4.742;2023-01-30T08:40:34;9.40;99.90
10046;DHT22;5063;50.878;4.742;2023-01-30T08:43:00;9.20;99.90
10046;DHT22;5063;50.878;4.742;2023-01-30T08:45:26;9.00;99.90
10046;DHT22;5063;50.878;4.742;2023-01-30T08:47:52;8.90;99.90
10046;DHT22;5063;50.878;4.742;2023-01-30T08:50:18;8.70;99.90
10046;DHT22;5063;50.878;4.742;2023-01-30T08:52:44;8.60;99.90
10046;DHT22;5063;50.878;4.742;2023-01-30T08:55:10;8.40;99.90
10046;DHT22;5063;50.878;4.742;2023-01-30T08:57:36;8.40;99.90
10046;DHT22;5063;50.878;4.742;2023-01-30T09:00:02;8.40;99.90
10046;DHT22;5063;50.878;4.742;2023-01-30T09:02:28;8.40;99.90
10046;DHT22;5063;50.878;4.742;2023-01-30T09:04:54;8.50;99.90
10046;DHT22;5063;50.878;4.742;2023-01-30T09:07:20;8.50;99.90
10046;DHT22;5063;50.878;4.742;2023-01-30T09:09:45;8.40;99.90
10046;DHT22;5063;50.878;4.742;2023-01-30T09:12:13;8.40;99.90
10046;DHT22;5063;50.878;4.742;2023-01-30T09:14:39;8.40;99.90
10046;DHT22;5063;50.878;4.742;2023-01-30T09:17:05;8.40;99.90
10046;DHT22;5063;50.878;4.742;2023-01-30T09:19:31;8.30;99.90
10046;DHT22;5063;50.878;4.742;2023-01-30T09:21:57;8.30;99.90
10046;DHT22;5063;50.878;4.742;2023-01-30T09:24:23;8.30;99.90
10046;DHT22;5063;50.878;4.742;2023-01-30T09:26:53;8.40;99.90
10046;DHT22;5063;50.878;4.742;2023-01-30T09:29:19;8.50;99.90
10046;DHT22;5063;50.878;4.742;2023-01-30T09:31:45;8.50;99.90
10046;DHT22;5063;50.878;4.742;2023-01-30T09:34:10;8.50;99.90
10046;DHT22;5063;50.878;4.742;2023-01-30T09:36:36;8.50;99.90
10046;DHT22;5063;50.878;4.742;2023-01-30T09:39:02;8.60;99.90
10046;DHT22;5063;50.878;4.742;2023-01-30T09:45:00;8.60;99.90
10046;DHT22;5063;50.878;4.742;2023-01-30T09:53:40;8.60;99.90
10046;DHT22;5063;50.878;4.742;2023-01-30T09:56:09;8.60;99.90
10046;DHT22;5063;50.878;4.742;2023-01-30T09:58:51;8.70;99.90
10046;DHT22;5063;50.878;4.742;2023-01-30T10:01:50;8.70;99.90
10046;DHT22;5063;50.878;4.742;2023-01-30T10:04:36;8.70;99.90
10046;DHT22;5063;50.878;4.742;2023-01-30T10:10:00;8.70;99.90
10046;DHT22;5063;50.878;4.742;2023-01-30T10:26:32;9.10;99.90
10046;DHT22;5063;50.878;4.742;2023-01-30T10:29:23;9.00;99.90
10046;DHT22;5063;50.878;4.742;2023-01-30T10:34:44;9.10;99.90
10046;DHT22;5063;50.878;4.742;2023-01-30T10:37:14;9.20;99.90
10046;DHT22;5063;50.878;4.742;2023-01-30T10:40:11;9.40;99.90
10046;DHT22;5063;50.878;4.742;2023-01-30T10:53:41;9.90;99.90
10046;DHT22;5063;50.878;4.742;2023-01-30T11:00:03;9.90;99.90
10046;DHT22;5063;50.878;4.742;2023-01-30T11:05:19;10.00;99.90
10046;DHT22;5063;50.878;4.742;2023-01-30T11:07:47;10.00;99.90
10046;DHT22;5063;50.878;4.742;2023-01-30T11:10:23;10.00;99.90
10046;DHT22;5063;50.878;4.742;2023-01-30T11:12:59;10.10;99.90
10046;DHT22;5063;50.878;4.742;2023-01-30T11:15:38;10.30;99.90
10046;DHT22;5063;50.878;4.742;2023-01-30T11:18:05;10.10;99.90
10046;DHT22;5063;50.878;4.742;2023-01-30T11:20:39;10.10;99.90
10046;DHT22;5063;50.878;4.742;2023-01-30T11:23:07;10.20;99.90
10046;DHT22;5063;50.878;4.742;2023-01-30T11:25:52;10.10;99.90
10046;DHT22;5063;50.878;4.742;2023-01-30T11:28:18;9.90;99.90
10046;DHT22;5063;50.878;4.742;2023-01-30T11:30:57;10.00;99.90
10046;DHT22;5063;50.878;4.742;2023-01-30T11:33:34;9.90;99.90
10046;DHT22;5063;50.878;4.742;2023-01-30T11:36:24;9.90;99.90
10046;DHT22;5063;50.878;4.742;2023-01-30T11:38:59;10.00;99.90
10046;DHT22;5063;50.878;4.742;2023-01-30T11:41:25;9.80;99.90
10046;DHT22;5063;50.878;4.742;2023-01-30T11:43:59;9.80;99.90
10046;DHT22;5063;50.878;4.742;2023-01-30T11:46:35;10.00;99.90
10046;DHT22;5063;50.878;4.742;2023-01-30T11:49:15;9.90;99.90
10046;DHT22;5063;50.878;4.742;2023-01-30T11:51:44;9.70;99.90
10046;DHT22;5063;50.878;4.742;2023-01-30T11:54:15;9.50;99.90
10046;DHT22;5063;50.878;4.742;2023-01-30T11:56:52;9.50;99.90
10046;DHT22;5063;50.878;4.742;2023-01-30T11:59:55;9.60;99.90
10046;DHT22;5063;50.878;4.742;2023-01-30T12:02:24;9.60;99.90
10046;DHT22;5063;50.878;4.742;2023-01-30T12:04:58;9.50;99.90
10046;DHT22;5063;50.878;4.742;2023-01-30T12:07:29;9.70;99.90
10046;DHT22;5063;50.878;4.742;2023-01-30T12:09:57;9.90;99.90
10046;DHT22;5063;50.878;4.742;2023-01-30T12:12:32;9.70;99.90
10046;DHT22;5063;50.878;4.742;2023-01-30T12:15:09;9.50;99.90
10046;DHT22;5063;50.878;4.742;2023-01-30T12:17:54;9.40;99.90
10046;DHT22;5063;50.878;4.742;2023-01-30T12:20:51;9.60;99.90
10046;DHT22;5063;50.878;4.742;2023-01-30T12:23:44;9.60;99.90
10046;DHT22;5063;50.878;4.742;2023-01-30T12:31:49;9.50;99.90
10046;DHT22;5063;50.878;4.742;2023-01-30T12:34:19;9.70;99.90
10046;DHT22;5063;50.878;4.742;2023-01-30T12:42:27;9.40;99.90
10046;DHT22;5063;50.878;4.742;2023-01-30T12:45:20;9.40;99.90
10046;DHT22;5063;50.878;4.742;2023-01-30T12:51:09;9.40;99.90
10046;DHT22;5063;50.878;4.742;2023-01-30T12:53:55;9.40;99.90
10046;DHT22;5063;50.878;4.742;2023-01-30T13:02:11;9.30;99.90
10046;DHT22;5063;50.878;4.742;2023-01-30T13:07:23;9.40;99.90
10046;DHT22;5063;50.878;4.742;2023-01-30T13:10:11;9.50;99.90
10046;DHT22;5063;50.878;4.742;2023-01-30T13:18:47;9.40;99.90
10046;DHT22;5063;50.878;4.742;2023-01-30T13:21:22;9.40;99.90
10046;DHT22;5063;50.878;4.742;2023-01-30T13:26:30;9.40;99.90
10046;DHT22;5063;50.878;4.742;2023-01-30T13:29:04;9.50;99.90
10046;DHT22;5063;50.878;4.742;2023-01-30T13:31:36;9.40;99.90
10046;DHT22;5063;50.878;4.742;2023-01-30T13:34:12;9.70;99.90
10046;DHT22;5063;50.878;4.742;2023-01-30T13:36:46;9.60;99.90
10046;DHT22;5063;50.878;4.742;2023-01-30T13:42:20;9.60;99.90
10046;DHT22;5063;50.878;4.742;2023-01-30T13:44:48;9.50;99.90
10046;DHT22;5063;50.878;4.742;2023-01-30T13:47:30;9.50;99.90
10046;DHT22;5063;50.878;4.742;2023-01-30T13:52:59;9.60;99.90
10046;DHT22;5063;50.878;4.742;2023-01-30T14:00:39;9.70;99.90
10046;DHT22;5063;50.878;4.742;2023-01-30T14:08:24;9.70;99.90
10046;DHT22;5063;50.878;4.742;2023-01-30T14:10:55;9.70;99.90
10046;DHT22;5063;50.878;4.742;2023-01-30T14:13:22;9.70;99.90
10046;DHT22;5063;50.878;4.742;2023-01-30T14:16:01;9.70;99.90
10046;DHT22;5063;50.878;4.742;2023-01-30T14:18:33;9.80;99.90
10046;DHT22;5063;50.878;4.742;2023-01-30T14:21:20;9.90;99.90
10046;DHT22;5063;50.878;4.742;2023-01-30T14:24:16;9.80;99.90
10046;DHT22;5063;50.878;4.742;2023-01-30T14:45:53;9.40;99.90
10046;DHT22;5063;50.878;4.742;2023-01-30T14:48:29;9.30;99.90
10046;DHT22;5063;50.878;4.742;2023-01-30T14:51:25;9.20;99.90
10046;DHT22;5063;50.878;4.742;2023-01-30T14:53:57;9.10;99.90
10046;DHT22;5063;50.878;4.742;2023-01-30T14:59:06;8.90;99.90
10046;DHT22;5063;50.878;4.742;2023-01-30T15:15:52;9.40;99.90
10046;DHT22;5063;50.878;4.742;2023-01-30T15:32:28;9.00;99.90
10046;DHT22;5063;50.878;4.742;2023-01-30T15:37:35;8.90;99.90
10046;DHT22;5063;50.878;4.742;2023-01-30T15:45:28;8.70;99.90
10046;DHT22;5063;50.878;4.742;2023-01-30T15:51:01;8.70;99.90
10046;DHT22;5063;50.878;4.742;2023-01-30T15:53:38;8.80;99.90
10046;DHT22;5063;50.878;4.742;2023-01-30T15:56:08;8.90;99.90
10046;DHT22;5063;50.878;4.742;2023-01-30T15:58:39;8.80;99.90
10046;DHT22;5063;50.878;4.742;2023-01-30T16:01:06;8.70;99.90
10046;DHT22;5063;50.878;4.742;2023-01-30T16:03:37;8.80;99.90
10046;DHT22;5063;50.878;4.742;2023-01-30T16:06:05;8.90;99.90
10046;DHT22;5063;50.878;4.742;2023-01-30T16:08:35;8.90;99.90
10046;DHT22;5063;50.878;4.742;2023-01-30T16:11:02;8.90;99.90
10046;DHT22;5063;50.878;4.742;2023-01-30T16:13:28;8.90;99.90
10046;DHT22;5063;50.878;4.742;2023-01-30T16:16:09;8.90;99.90
10046;DHT22;5063;50.878;4.742;2023-01-30T16:18:54;8.90;99.90
10046;DHT22;5063;50.878;4.742;2023-01-30T16:21:24;8.80;99.90
10046;DHT22;5063;50.878;4.742;2023-01-30T16:26:29;8.90;99.90
10046;DHT22;5063;50.878;4.742;2023-01-30T16:29:20;8.90;99.90
10046;DHT22;5063;50.878;4.742;2023-01-30T16:31:50;8.80;99.90
10046;DHT22;5063;50.878;4.742;2023-01-30T16:34:38;8.80;99.90
10046;DHT22;5063;50.878;4.742;2023-01-30T16:37:20;8.70;99.90
10046;DHT22;5063;50.878;4.742;2023-01-30T16:40:15;8.70;99.90
10046;DHT22;5063;50.878;4.742;2023-01-30T16:43:02;8.80;99.90
10046;DHT22;5063;50.878;4.742;2023-01-30T16:50:42;8.70;99.90
10046;DHT22;5063;50.878;4.742;2023-01-30T16:53:13;8.60;99.90
10046;DHT22;5063;50.878;4.742;2023-01-30T16:55:44;8.50;99.90
10046;DHT22;5063;50.878;4.742;2023-01-30T16:58:18;8.50;99.90
10046;DHT22;5063;50.878;4.742;2023-01-30T17:00:48;8.50;99.90
10046;DHT22;5063;50.878;4.742;2023-01-30T17:03:22;8.50;99.90
10046;DHT22;5063;50.878;4.742;2023-01-30T17:05:49;8.50;99.90
10046;DHT22;5063;50.878;4.742;2023-01-30T17:11:02;8.40;99.90
10046;DHT22;5063;50.878;4.742;2023-01-30T17:13:35;8.40;99.90
10046;DHT22;5063;50.878;4.742;2023-01-30T17:18:53;8.40;99.90
10046;DHT22;5063;50.878;4.742;2023-01-30T17:21:20;8.40;99.90
10046;DHT22;5063;50.878;4.742;2023-01-30T17:23:50;8.30;99.90
10046;DHT22;5063;50.878;4.742;2023-01-30T17:26:17;8.20;99.90
10046;DHT22;5063;50.878;4.742;2023-01-30T17:28:43;8.10;99.90
10046;DHT22;5063;50.878;4.742;2023-01-30T17:31:13;8.20;99.90
10046;DHT22;5063;50.878;4.742;2023-01-30T17:33:39;8.20;99.90
10046;DHT22;5063;50.878;4.742;2023-01-30T17:36:14;8.20;99.90
10046;DHT22;5063;50.878;4.742;2023-01-30T17:38:41;8.00;99.90
10046;DHT22;5063;50.878;4.742;2023-01-30T17:41:16;7.90;99.90
10046;DHT22;5063;50.878;4.742;2023-01-30T17:43:42;7.80;99.90
10046;DHT22;5063;50.878;4.742;2023-01-30T17:46:08;7.90;99.90
10046;DHT22;5063;50.878;4.742;2023-01-30T17:48:35;8.00;99.90
10046;DHT22;5063;50.878;4.742;2023-01-30T17:51:01;8.00;99.90
10046;DHT22;5063;50.878;4.742;2023-01-30T17:53:27;8.00;99.90
10046;DHT22;5063;50.878;4.742;2023-01-30T17:55:52;8.00;99.90
10046;DHT22;5063;50.878;4.742;2023-01-30T17:58:18;8.00;99.90
10046;DHT22;5063;50.878;4.742;2023-01-30T18:00:44;8.20;99.90
10046;DHT22;5063;50.878;4.742;2023-01-30T18:03:10;8.00;99.90
10046;DHT22;5063;50.878;4.742;2023-01-30T18:05:36;8.00;99.90
10046;DHT22;5063;50.878;4.742;2023-01-30T18:08:01;8.00;99.90
10046;DHT22;5063;50.878;4.742;2023-01-30T18:10:27;8.00;99.90
10046;DHT22;5063;50.878;4.742;2023-01-30T18:12:53;7.90;99.90
10046;DHT22;5063;50.878;4.742;2023-01-30T18:15:18;8.10;99.90
10046;DHT22;5063;50.878;4.742;2023-01-30T18:17:46;7.80;99.90
10046;DHT22;5063;50.878;4.742;2023-01-30T18:20:15;8.10;99.90
10046;DHT22;5063;50.878;4.742;2023-01-30T18:22:42;8.00;99.90
10046;DHT22;5063;50.878;4.742;2023-01-30T18:25:08;8.00;99.90
10046;DHT22;5063;50.878;4.742;2023-01-30T18:27:34;8.00;99.90
10046;DHT22;5063;50.878;4.742;2023-01-30T18:29:59;7.90;99.90
10046;DHT22;5063;50.878;4.742;2023-01-30T18:32:25;7.30;99.90
10046;DHT22;5063;50.878;4.742;2023-01-30T18:34:51;7.70;99.90
10046;DHT22;5063;50.878;4.742;2023-01-30T18:37:16;7.70;99.90
10046;DHT22;5063;50.878;4.742;2023-01-30T18:39:42;7.70;99.90
10046;DHT22;5063;50.878;4.742;2023-01-30T18:42:08;7.60;99.90
10046;DHT22;5063;50.878;4.742;2023-01-30T18:44:34;7.70;99.90
10046;DHT22;5063;50.878;4.742;2023-01-30T18:47:00;7.50;99.90
10046;DHT22;5063;50.878;4.742;2023-01-30T18:49:25;7.40;99.90
10046;DHT22;5063;50.878;4.742;2023-01-30T18:51:51;7.40;99.90
10046;DHT22;5063;50.878;4.742;2023-01-30T18:54:17;7.60;99.90
10046;DHT22;5063;50.878;4.742;2023-01-30T18:56:43;7.20;99.90
10046;DHT22;5063;50.878;4.742;2023-01-30T18:59:09;7.20;99.90
10046;DHT22;5063;50.878;4.742;2023-01-30T19:01:38;7.20;99.90
10046;DHT22;5063;50.878;4.742;2023-01-30T19:04:06;7.10;99.90
10046;DHT22;5063;50.878;4.742;2023-01-30T19:06:36;7.10;99.90
10046;DHT22;5063;50.878;4.742;2023-01-30T19:09:02;7.10;99.90
10046;DHT22;5063;50.878;4.742;2023-01-30T19:11:29;7.20;99.90
10046;DHT22;5063;50.878;4.742;2023-01-30T19:14:14;7.10;99.90
10046;DHT22;5063;50.878;4.742;2023-01-30T19:16:39;7.20;99.90
10046;DHT22;5063;50.878;4.742;2023-01-30T19:19:06;7.20;99.90
10046;DHT22;5063;50.878;4.742;2023-01-30T19:21:32;7.20;99.90
10046;DHT22;5063;50.878;4.742;2023-01-30T19:24:01;7.10;99.90
10046;DHT22;5063;50.878;4.742;2023-01-30T19:26:27;7.10;99.90